sensor_id;sensor_type;location;lat;lon;timestamp;P1;durP1;ratioP1;P2;durP2;ratioP2
67514;SDS011;60646;55.802;37.032;2023-04-03T00:00:39;7.05;;;4.55;;
67514;SDS011;60646;55.802;37.032;2023-04-03T00:03:05;8.93;;;4.90;;
67514;SDS011;60646;55.802;37.032;2023-04-03T00:05:34;10.18;;;5.25;;
67514;SDS011;60646;55.802;37.032;2023-04-03T00:07:59;10.48;;;5.18;;
67514;SDS011;60646;55.802;37.032;2023-04-03T00:10:27;9.35;;;5.25;;
67514;SDS011;60646;55.802;37.032;2023-04-03T00:12:53;8.38;;;4.70;;
67514;SDS011;60646;55.802;37.032;2023-04-03T00:15:19;11.20;;;5.18;;
67514;SDS011;60646;55.802;37.032;2023-04-03T00:17:45;8.00;;;4.68;;
67514;SDS011;60646;55.802;37.032;2023-04-03T00:20:10;10.00;;;5.25;;
67514;SDS011;60646;55.802;37.032;2023-04-03T00:22:36;7.50;;;4.18;;
67514;SDS011;60646;55.802;37.032;2023-04-03T00:25:02;7.90;;;4.13;;
67514;SDS011;60646;55.802;37.032;2023-04-03T00:27:28;6.32;;;3.90;;
67514;SDS011;60646;55.802;37.032;2023-04-03T00:29:54;8.30;;;4.65;;
67514;SDS011;60646;55.802;37.032;2023-04-03T00:32:47;6.63;;;4.47;;
67514;SDS011;60646;55.802;37.032;2023-04-03T00:35:14;6.53;;;3.88;;
67514;SDS011;60646;55.802;37.032;2023-04-03T00:37:41;8.60;;;4.38;;
67514;SDS011;60646;55.802;37.032;2023-04-03T00:40:09;6.57;;;4.15;;
67514;SDS011;60646;55.802;37.032;2023-04-03T00:42:39;5.25;;;3.85;;
67514;SDS011;60646;55.802;37.032;2023-04-03T00:47:31;7.55;;;4.35;;
67514;SDS011;60646;55.802;37.032;2023-04-03T00:49:57;6.88;;;4.28;;
67514;SDS011;60646;55.802;37.032;2023-04-03T00:52:26;7.15;;;3.90;;
67514;SDS011;60646;55.802;37.032;2023-04-03T00:57:27;7.07;;;4.05;;
67514;SDS011;60646;55.802;37.032;2023-04-03T00:59:57;7.63;;;4.70;;
67514;SDS011;60646;55.802;37.032;2023-04-03T01:02:30;6.97;;;4.53;;
67514;SDS011;60646;55.802;37.032;2023-04-03T01:04:56;6.28;;;3.90;;
67514;SDS011;60646;55.802;37.032;2023-04-03T01:07:23;7.07;;;4.05;;
67514;SDS011;60646;55.802;37.032;2023-04-03T01:09:53;8.10;;;4.68;;
67514;SDS011;60646;55.802;37.032;2023-04-03T01:12:23;9.73;;;4.88;;
67514;SDS011;60646;55.802;37.032;2023-04-03T01:14:55;7.13;;;4.65;;
67514;SDS011;60646;55.802;37.032;2023-04-03T01:17:43;8.50;;;4.80;;
67514;SDS011;60646;55.802;37.032;2023-04-03T01:25:46;8.32;;;4.50;;
67514;SDS011;60646;55.802;37.032;2023-04-03T01:28:16;8.93;;;4.88;;
67514;SDS011;60646;55.802;37.032;2023-04-03T01:30:44;7.18;;;4.50;;
67514;SDS011;60646;55.802;37.032;2023-04-03T01:33:15;7.50;;;4.72;;
67514;SDS011;60646;55.802;37.032;2023-04-03T01:35:41;9.35;;;5.65;;
67514;SDS011;60646;55.802;37.032;2023-04-03T01:38:07;6.50;;;4.45;;
67514;SDS011;60646;55.802;37.032;2023-04-03T01:40:33;9.40;;;4.97;;
67514;SDS011;60646;55.802;37.032;2023-04-03T01:42:59;8.57;;;5.30;;
67514;SDS011;60646;55.802;37.032;2023-04-03T01:45:24;9.30;;;4.82;;
67514;SDS011;60646;55.802;37.032;2023-04-03T01:47:50;10.95;;;5.47;;
67514;SDS011;60646;55.802;37.032;2023-04-03T01:50:16;8.88;;;4.97;;
67514;SDS011;60646;55.802;37.032;2023-04-03T01:52:42;8.63;;;4.90;;
67514;SDS011;60646;55.802;37.032;2023-04-03T01:55:08;8.55;;;5.07;;
67514;SDS011;60646;55.802;37.032;2023-04-03T01:57:34;7.88;;;4.70;;
67514;SDS011;60646;55.802;37.032;2023-04-03T02:00:00;6.60;;;4.35;;
67514;SDS011;60646;55.802;37.032;2023-04-03T02:02:28;8.07;;;4.55;;
67514;SDS011;60646;55.802;37.032;2023-04-03T02:07:46;9.25;;;4.53;;
67514;SDS011;60646;55.802;37.032;2023-04-03T02:10:12;7.95;;;4.68;;
67514;SDS011;60646;55.802;37.032;2023-04-03T02:12:38;8.32;;;4.80;;
67514;SDS011;60646;55.802;37.032;2023-04-03T02:15:04;7.43;;;4.38;;
67514;SDS011;60646;55.802;37.032;2023-04-03T02:17:30;7.75;;;4.47;;
67514;SDS011;60646;55.802;37.032;2023-04-03T02:19:56;7.35;;;4.70;;
67514;SDS011;60646;55.802;37.032;2023-04-03T02:22:24;8.50;;;4.43;;
67514;SDS011;60646;55.802;37.032;2023-04-03T02:24:50;8.75;;;5.03;;
67514;SDS011;60646;55.802;37.032;2023-04-03T02:27:17;9.63;;;5.25;;
67514;SDS011;60646;55.802;37.032;2023-04-03T02:29:42;7.53;;;4.80;;
67514;SDS011;60646;55.802;37.032;2023-04-03T02:32:08;8.38;;;5.20;;
67514;SDS011;60646;55.802;37.032;2023-04-03T02:34:34;9.82;;;5.20;;
67514;SDS011;60646;55.802;37.032;2023-04-03T02:37:01;9.48;;;4.80;;
67514;SDS011;60646;55.802;37.032;2023-04-03T02:39:28;6.97;;;4.88;;
67514;SDS011;60646;55.802;37.032;2023-04-03T02:41:54;10.25;;;4.90;;
67514;SDS011;60646;55.802;37.032;2023-04-03T02:44:23;9.20;;;4.93;;
67514;SDS011;60646;55.802;37.032;2023-04-03T02:46:49;9.45;;;5.00;;
67514;SDS011;60646;55.802;37.032;2023-04-03T02:49:16;8.50;;;5.22;;
67514;SDS011;60646;55.802;37.032;2023-04-03T02:51:42;7.18;;;4.47;;
67514;SDS011;60646;55.802;37.032;2023-04-03T02:54:08;10.00;;;5.07;;
67514;SDS011;60646;55.802;37.032;2023-04-03T02:56:37;7.40;;;5.30;;
67514;SDS011;60646;55.802;37.032;2023-04-03T02:59:29;8.55;;;4.85;;
67514;SDS011;60646;55.802;37.032;2023-04-03T03:01:54;7.80;;;4.43;;
67514;SDS011;60646;55.802;37.032;2023-04-03T03:04:21;7.10;;;4.35;;
67514;SDS011;60646;55.802;37.032;2023-04-03T03:06:47;7.75;;;4.55;;
67514;SDS011;60646;55.802;37.032;2023-04-03T03:09:12;7.38;;;4.95;;
67514;SDS011;60646;55.802;37.032;2023-04-03T03:11:38;8.82;;;4.88;;
67514;SDS011;60646;55.802;37.032;2023-04-03T03:14:05;7.57;;;4.70;;
67514;SDS011;60646;55.802;37.032;2023-04-03T03:16:32;9.35;;;5.38;;
67514;SDS011;60646;55.802;37.032;2023-04-03T03:18:58;8.85;;;4.93;;
67514;SDS011;60646;55.802;37.032;2023-04-03T03:21:24;9.32;;;4.97;;
67514;SDS011;60646;55.802;37.032;2023-04-03T03:23:50;6.97;;;3.97;;
67514;SDS011;60646;55.802;37.032;2023-04-03T03:26:15;7.97;;;4.70;;
67514;SDS011;60646;55.802;37.032;2023-04-03T03:28:41;7.60;;;4.65;;
67514;SDS011;60646;55.802;37.032;2023-04-03T03:31:07;7.70;;;4.60;;
67514;SDS011;60646;55.802;37.032;2023-04-03T03:33:36;8.02;;;4.47;;
67514;SDS011;60646;55.802;37.032;2023-04-03T03:36:04;7.00;;;4.97;;
67514;SDS011;60646;55.802;37.032;2023-04-03T03:38:30;7.10;;;4.43;;
67514;SDS011;60646;55.802;37.032;2023-04-03T03:40:58;8.23;;;4.82;;
67514;SDS011;60646;55.802;37.032;2023-04-03T03:43:24;7.05;;;4.43;;
67514;SDS011;60646;55.802;37.032;2023-04-03T03:48:43;7.53;;;4.15;;
67514;SDS011;60646;55.802;37.032;2023-04-03T03:51:09;8.05;;;4.43;;
67514;SDS011;60646;55.802;37.032;2023-04-03T03:53:37;7.93;;;4.85;;
67514;SDS011;60646;55.802;37.032;2023-04-03T03:56:06;8.48;;;5.63;;
67514;SDS011;60646;55.802;37.032;2023-04-03T03:58:33;9.30;;;4.93;;
67514;SDS011;60646;55.802;37.032;2023-04-03T04:01:01;8.75;;;4.78;;
67514;SDS011;60646;55.802;37.032;2023-04-03T04:03:29;9.88;;;4.70;;
67514;SDS011;60646;55.802;37.032;2023-04-03T04:05:55;7.70;;;4.82;;
67514;SDS011;60646;55.802;37.032;2023-04-03T04:08:22;8.82;;;4.80;;
67514;SDS011;60646;55.802;37.032;2023-04-03T04:10:48;7.15;;;4.70;;
67514;SDS011;60646;55.802;37.032;2023-04-03T04:13:15;8.27;;;4.85;;
67514;SDS011;60646;55.802;37.032;2023-04-03T04:15:42;7.68;;;4.82;;
67514;SDS011;60646;55.802;37.032;2023-04-03T04:18:08;10.00;;;5.03;;
67514;SDS011;60646;55.802;37.032;2023-04-03T04:20:34;7.72;;;4.63;;
67514;SDS011;60646;55.802;37.032;2023-04-03T04:23:00;7.82;;;4.90;;
67514;SDS011;60646;55.802;37.032;2023-04-03T04:25:27;7.93;;;5.10;;
67514;SDS011;60646;55.802;37.032;2023-04-03T04:27:53;6.57;;;4.70;;
67514;SDS011;60646;55.802;37.032;2023-04-03T04:30:19;10.05;;;5.93;;
67514;SDS011;60646;55.802;37.032;2023-04-03T04:32:47;7.90;;;5.15;;
67514;SDS011;60646;55.802;37.032;2023-04-03T04:35:14;8.25;;;4.97;;
67514;SDS011;60646;55.802;37.032;2023-04-03T04:37:42;14.02;;;7.18;;
67514;SDS011;60646;55.802;37.032;2023-04-03T04:40:08;9.02;;;5.38;;
67514;SDS011;60646;55.802;37.032;2023-04-03T04:42:34;10.80;;;5.13;;
67514;SDS011;60646;55.802;37.032;2023-04-03T04:45:00;10.35;;;5.32;;
67514;SDS011;60646;55.802;37.032;2023-04-03T04:47:29;8.65;;;4.95;;
67514;SDS011;60646;55.802;37.032;2023-04-03T04:49:55;10.50;;;5.65;;
67514;SDS011;60646;55.802;37.032;2023-04-03T04:52:21;11.23;;;5.22;;
67514;SDS011;60646;55.802;37.032;2023-04-03T04:54:47;8.70;;;5.20;;
67514;SDS011;60646;55.802;37.032;2023-04-03T04:57:13;10.95;;;5.07;;
67514;SDS011;60646;55.802;37.032;2023-04-03T04:59:40;7.97;;;4.47;;
67514;SDS011;60646;55.802;37.032;2023-04-03T05:02:24;7.93;;;4.55;;
67514;SDS011;60646;55.802;37.032;2023-04-03T05:04:50;9.27;;;5.07;;
67514;SDS011;60646;55.802;37.032;2023-04-03T05:07:21;8.15;;;4.72;;
67514;SDS011;60646;55.802;37.032;2023-04-03T05:09:47;6.13;;;4.30;;
67514;SDS011;60646;55.802;37.032;2023-04-03T05:12:15;6.47;;;4.43;;
67514;SDS011;60646;55.802;37.032;2023-04-03T05:14:47;10.77;;;5.07;;
67514;SDS011;60646;55.802;37.032;2023-04-03T05:17:14;10.10;;;4.97;;
67514;SDS011;60646;55.802;37.032;2023-04-03T05:19:47;9.95;;;5.07;;
67514;SDS011;60646;55.802;37.032;2023-04-03T05:22:14;14.20;;;5.38;;
67514;SDS011;60646;55.802;37.032;2023-04-03T05:25:50;8.63;;;4.95;;
67514;SDS011;60646;55.802;37.032;2023-04-03T05:28:17;10.45;;;5.80;;
67514;SDS011;60646;55.802;37.032;2023-04-03T05:30:44;10.40;;;5.50;;
67514;SDS011;60646;55.802;37.032;2023-04-03T05:33:10;10.45;;;4.82;;
67514;SDS011;60646;55.802;37.032;2023-04-03T05:38:13;11.48;;;5.22;;
67514;SDS011;60646;55.802;37.032;2023-04-03T05:40:39;9.73;;;4.65;;
67514;SDS011;60646;55.802;37.032;2023-04-03T05:43:05;9.13;;;4.78;;
67514;SDS011;60646;55.802;37.032;2023-04-03T05:45:35;9.73;;;5.72;;
67514;SDS011;60646;55.802;37.032;2023-04-03T05:48:01;10.75;;;5.32;;
67514;SDS011;60646;55.802;37.032;2023-04-03T05:50:28;8.88;;;6.10;;
67514;SDS011;60646;55.802;37.032;2023-04-03T05:52:55;9.43;;;5.22;;
67514;SDS011;60646;55.802;37.032;2023-04-03T05:55:25;10.05;;;5.30;;
67514;SDS011;60646;55.802;37.032;2023-04-03T05:57:51;11.43;;;6.10;;
67514;SDS011;60646;55.802;37.032;2023-04-03T06:00:16;8.82;;;5.35;;
67514;SDS011;60646;55.802;37.032;2023-04-03T06:02:52;10.23;;;5.50;;
67514;SDS011;60646;55.802;37.032;2023-04-03T06:05:21;8.07;;;5.45;;
67514;SDS011;60646;55.802;37.032;2023-04-03T06:07:48;10.45;;;5.40;;
67514;SDS011;60646;55.802;37.032;2023-04-03T06:10:15;9.07;;;5.30;;
67514;SDS011;60646;55.802;37.032;2023-04-03T06:12:42;11.30;;;5.75;;
67514;SDS011;60646;55.802;37.032;2023-04-03T06:15:08;9.65;;;5.30;;
67514;SDS011;60646;55.802;37.032;2023-04-03T06:17:36;11.05;;;5.25;;
67514;SDS011;60646;55.802;37.032;2023-04-03T06:20:03;10.23;;;5.28;;
67514;SDS011;60646;55.802;37.032;2023-04-03T06:22:30;10.35;;;5.07;;
67514;SDS011;60646;55.802;37.032;2023-04-03T06:24:56;9.63;;;5.20;;
67514;SDS011;60646;55.802;37.032;2023-04-03T06:27:22;8.38;;;5.13;;
67514;SDS011;60646;55.802;37.032;2023-04-03T06:29:48;8.90;;;5.18;;
67514;SDS011;60646;55.802;37.032;2023-04-03T06:32:15;8.30;;;5.22;;
67514;SDS011;60646;55.802;37.032;2023-04-03T06:34:41;8.93;;;5.05;;
67514;SDS011;60646;55.802;37.032;2023-04-03T06:37:11;11.32;;;5.43;;
67514;SDS011;60646;55.802;37.032;2023-04-03T06:39:40;13.60;;;5.25;;
67514;SDS011;60646;55.802;37.032;2023-04-03T06:42:07;11.82;;;5.82;;
67514;SDS011;60646;55.802;37.032;2023-04-03T06:44:37;10.02;;;5.28;;
67514;SDS011;60646;55.802;37.032;2023-04-03T06:47:03;9.23;;;5.40;;
67514;SDS011;60646;55.802;37.032;2023-04-03T06:49:29;10.23;;;5.22;;
67514;SDS011;60646;55.802;37.032;2023-04-03T06:51:55;7.82;;;5.30;;
67514;SDS011;60646;55.802;37.032;2023-04-03T06:54:21;11.68;;;6.00;;
67514;SDS011;60646;55.802;37.032;2023-04-03T06:56:47;9.32;;;5.95;;
67514;SDS011;60646;55.802;37.032;2023-04-03T06:59:13;8.23;;;5.43;;
67514;SDS011;60646;55.802;37.032;2023-04-03T07:01:40;10.85;;;5.75;;
67514;SDS011;60646;55.802;37.032;2023-04-03T07:04:07;8.45;;;4.82;;
67514;SDS011;60646;55.802;37.032;2023-04-03T07:06:33;7.97;;;4.90;;
67514;SDS011;60646;55.802;37.032;2023-04-03T07:09:00;8.80;;;5.38;;
67514;SDS011;60646;55.802;37.032;2023-04-03T07:11:27;8.10;;;5.15;;
67514;SDS011;60646;55.802;37.032;2023-04-03T07:13:53;9.10;;;5.50;;
67514;SDS011;60646;55.802;37.032;2023-04-03T07:16:19;8.13;;;5.13;;
67514;SDS011;60646;55.802;37.032;2023-04-03T07:18:45;8.25;;;5.22;;
67514;SDS011;60646;55.802;37.032;2023-04-03T07:21:11;10.15;;;5.65;;
67514;SDS011;60646;55.802;37.032;2023-04-03T07:24:02;6.90;;;4.47;;
67514;SDS011;60646;55.802;37.032;2023-04-03T07:26:28;7.70;;;4.93;;
67514;SDS011;60646;55.802;37.032;2023-04-03T07:28:54;10.38;;;4.85;;
67514;SDS011;60646;55.802;37.032;2023-04-03T07:31:20;8.18;;;4.53;;
67514;SDS011;60646;55.802;37.032;2023-04-03T07:33:52;7.25;;;4.95;;
67514;SDS011;60646;55.802;37.032;2023-04-03T07:36:19;10.05;;;5.05;;
67514;SDS011;60646;55.802;37.032;2023-04-03T07:38:46;8.80;;;4.95;;
67514;SDS011;60646;55.802;37.032;2023-04-03T07:41:13;8.23;;;4.50;;
67514;SDS011;60646;55.802;37.032;2023-04-03T07:43:40;7.63;;;4.40;;
67514;SDS011;60646;55.802;37.032;2023-04-03T07:46:07;6.40;;;4.70;;
67514;SDS011;60646;55.802;37.032;2023-04-03T07:48:33;9.45;;;5.40;;
67514;SDS011;60646;55.802;37.032;2023-04-03T07:51:00;9.00;;;5.20;;
67514;SDS011;60646;55.802;37.032;2023-04-03T07:53:27;9.55;;;5.40;;
67514;SDS011;60646;55.802;37.032;2023-04-03T07:55:56;7.68;;;5.07;;
67514;SDS011;60646;55.802;37.032;2023-04-03T07:58:23;10.18;;;4.88;;
67514;SDS011;60646;55.802;37.032;2023-04-03T08:00:49;8.15;;;5.15;;
67514;SDS011;60646;55.802;37.032;2023-04-03T08:03:15;8.48;;;5.75;;
67514;SDS011;60646;55.802;37.032;2023-04-03T08:05:42;10.05;;;5.68;;
67514;SDS011;60646;55.802;37.032;2023-04-03T08:08:10;9.02;;;5.80;;
67514;SDS011;60646;55.802;37.032;2023-04-03T08:14:17;10.10;;;5.85;;
67514;SDS011;60646;55.802;37.032;2023-04-03T08:16:44;10.60;;;6.38;;
67514;SDS011;60646;55.802;37.032;2023-04-03T08:19:12;10.43;;;5.55;;
67514;SDS011;60646;55.802;37.032;2023-04-03T08:21:41;9.32;;;5.60;;
67514;SDS011;60646;55.802;37.032;2023-04-03T08:24:07;12.32;;;5.93;;
67514;SDS011;60646;55.802;37.032;2023-04-03T08:26:33;9.20;;;5.32;;
67514;SDS011;60646;55.802;37.032;2023-04-03T08:29:00;13.48;;;6.55;;
67514;SDS011;60646;55.802;37.032;2023-04-03T08:31:26;10.40;;;5.90;;
67514;SDS011;60646;55.802;37.032;2023-04-03T08:33:52;9.70;;;5.50;;
67514;SDS011;60646;55.802;37.032;2023-04-03T08:36:22;8.90;;;6.00;;
67514;SDS011;60646;55.802;37.032;2023-04-03T08:38:50;12.95;;;5.72;;
67514;SDS011;60646;55.802;37.032;2023-04-03T08:44:15;7.70;;;5.47;;
67514;SDS011;60646;55.802;37.032;2023-04-03T08:46:47;11.15;;;5.80;;
67514;SDS011;60646;55.802;37.032;2023-04-03T08:49:39;10.68;;;5.80;;
67514;SDS011;60646;55.802;37.032;2023-04-03T08:52:13;7.95;;;5.15;;
67514;SDS011;60646;55.802;37.032;2023-04-03T08:57:28;7.68;;;5.20;;
67514;SDS011;60646;55.802;37.032;2023-04-03T09:00:21;10.40;;;5.63;;
67514;SDS011;60646;55.802;37.032;2023-04-03T09:02:50;10.75;;;5.50;;
67514;SDS011;60646;55.802;37.032;2023-04-03T09:05:19;8.48;;;5.60;;
67514;SDS011;60646;55.802;37.032;2023-04-03T09:10:40;9.48;;;5.70;;
67514;SDS011;60646;55.802;37.032;2023-04-03T09:15:45;8.60;;;5.70;;
67514;SDS011;60646;55.802;37.032;2023-04-03T09:18:19;9.65;;;5.25;;
67514;SDS011;60646;55.802;37.032;2023-04-03T09:26:05;13.15;;;6.35;;
67514;SDS011;60646;55.802;37.032;2023-04-03T09:28:54;11.27;;;6.20;;
67514;SDS011;60646;55.802;37.032;2023-04-03T09:31:27;9.23;;;5.45;;
67514;SDS011;60646;55.802;37.032;2023-04-03T09:33:57;9.98;;;6.15;;
67514;SDS011;60646;55.802;37.032;2023-04-03T09:36:37;10.48;;;5.95;;
67514;SDS011;60646;55.802;37.032;2023-04-03T09:41:40;10.73;;;5.78;;
67514;SDS011;60646;55.802;37.032;2023-04-03T09:44:19;11.82;;;6.20;;
67514;SDS011;60646;55.802;37.032;2023-04-03T09:46:47;10.15;;;5.72;;
67514;SDS011;60646;55.802;37.032;2023-04-03T09:49:13;11.70;;;5.95;;
67514;SDS011;60646;55.802;37.032;2023-04-03T09:51:39;12.65;;;6.22;;
67514;SDS011;60646;55.802;37.032;2023-04-03T09:56:57;11.18;;;6.60;;
67514;SDS011;60646;55.802;37.032;2023-04-03T09:59:32;9.60;;;5.70;;
67514;SDS011;60646;55.802;37.032;2023-04-03T10:02:02;11.98;;;6.20;;
67514;SDS011;60646;55.802;37.032;2023-04-03T10:04:44;9.68;;;5.53;;
67514;SDS011;60646;55.802;37.032;2023-04-03T10:10:02;8.70;;;5.10;;
67514;SDS011;60646;55.802;37.032;2023-04-03T10:12:43;10.27;;;5.78;;
67514;SDS011;60646;55.802;37.032;2023-04-03T10:15:13;9.73;;;5.50;;
67514;SDS011;60646;55.802;37.032;2023-04-03T10:17:50;10.82;;;5.68;;
67514;SDS011;60646;55.802;37.032;2023-04-03T10:26:23;9.07;;;5.33;;
67514;SDS011;60646;55.802;37.032;2023-04-03T10:28:57;8.77;;;5.53;;
67514;SDS011;60646;55.802;37.032;2023-04-03T10:36:46;8.00;;;4.90;;
67514;SDS011;60646;55.802;37.032;2023-04-03T10:53:24;12.57;;;5.30;;
67514;SDS011;60646;55.802;37.032;2023-04-03T10:59:07;10.90;;;5.45;;
67514;SDS011;60646;55.802;37.032;2023-04-03T11:01:41;8.05;;;5.65;;
67514;SDS011;60646;55.802;37.032;2023-04-03T11:04:09;11.32;;;5.43;;
67514;SDS011;60646;55.802;37.032;2023-04-03T11:06:41;11.70;;;5.10;;
67514;SDS011;60646;55.802;37.032;2023-04-03T11:11:47;9.43;;;4.68;;
67514;SDS011;60646;55.802;37.032;2023-04-03T11:14:27;7.63;;;4.93;;
67514;SDS011;60646;55.802;37.032;2023-04-03T11:24:57;9.60;;;5.30;;
67514;SDS011;60646;55.802;37.032;2023-04-03T11:27:30;9.18;;;4.88;;
67514;SDS011;60646;55.802;37.032;2023-04-03T11:30:04;11.82;;;5.43;;
67514;SDS011;60646;55.802;37.032;2023-04-03T11:34:58;8.93;;;4.70;;
67514;SDS011;60646;55.802;37.032;2023-04-03T11:37:33;12.13;;;5.28;;
67514;SDS011;60646;55.802;37.032;2023-04-03T11:42:42;8.73;;;4.93;;
67514;SDS011;60646;55.802;37.032;2023-04-03T11:47:56;9.48;;;4.47;;
67514;SDS011;60646;55.802;37.032;2023-04-03T11:53:01;10.27;;;5.22;;
67514;SDS011;60646;55.802;37.032;2023-04-03T12:22:06;7.47;;;4.90;;
67514;SDS011;60646;55.802;37.032;2023-04-03T12:24:35;9.02;;;4.80;;
67514;SDS011;60646;55.802;37.032;2023-04-03T12:30:04;8.15;;;4.45;;
67514;SDS011;60646;55.802;37.032;2023-04-03T12:46:37;10.05;;;5.00;;
67514;SDS011;60646;55.802;37.032;2023-04-03T12:49:12;8.55;;;4.72;;
67514;SDS011;60646;55.802;37.032;2023-04-03T12:51:47;8.57;;;4.57;;
67514;SDS011;60646;55.802;37.032;2023-04-03T12:56:45;8.30;;;4.85;;
67514;SDS011;60646;55.802;37.032;2023-04-03T12:59:15;12.07;;;5.53;;
67514;SDS011;60646;55.802;37.032;2023-04-03T13:01:53;9.40;;;4.93;;
67514;SDS011;60646;55.802;37.032;2023-04-03T13:04:24;11.55;;;5.05;;
67514;SDS011;60646;55.802;37.032;2023-04-03T13:06:50;10.18;;;4.90;;
67514;SDS011;60646;55.802;37.032;2023-04-03T13:09:26;11.48;;;5.05;;
67514;SDS011;60646;55.802;37.032;2023-04-03T13:12:00;10.93;;;4.95;;
67514;SDS011;60646;55.802;37.032;2023-04-03T13:14:36;10.68;;;5.10;;
67514;SDS011;60646;55.802;37.032;2023-04-03T13:17:04;10.02;;;4.70;;
67514;SDS011;60646;55.802;37.032;2023-04-03T13:19:38;11.57;;;4.65;;
67514;SDS011;60646;55.802;37.032;2023-04-03T13:22:11;10.02;;;4.68;;
67514;SDS011;60646;55.802;37.032;2023-04-03T13:25:15;10.77;;;4.60;;
67514;SDS011;60646;55.802;37.032;2023-04-03T13:27:42;9.88;;;4.20;;
67514;SDS011;60646;55.802;37.032;2023-04-03T13:30:27;8.60;;;4.43;;
67514;SDS011;60646;55.802;37.032;2023-04-03T13:33:00;11.40;;;4.43;;
67514;SDS011;60646;55.802;37.032;2023-04-03T13:35:33;9.48;;;4.65;;
67514;SDS011;60646;55.802;37.032;2023-04-03T13:38:06;6.95;;;4.10;;
67514;SDS011;60646;55.802;37.032;2023-04-03T13:40:54;7.95;;;4.13;;
67514;SDS011;60646;55.802;37.032;2023-04-03T13:43:26;10.80;;;4.80;;
67514;SDS011;60646;55.802;37.032;2023-04-03T13:46:04;10.52;;;4.82;;
67514;SDS011;60646;55.802;37.032;2023-04-03T13:48:52;7.85;;;3.88;;
67514;SDS011;60646;55.802;37.032;2023-04-03T13:51:24;7.68;;;3.83;;
67514;SDS011;60646;55.802;37.032;2023-04-03T13:56:30;9.30;;;4.40;;
67514;SDS011;60646;55.802;37.032;2023-04-03T14:06:45;8.65;;;4.30;;
67514;SDS011;60646;55.802;37.032;2023-04-03T14:09:12;8.75;;;4.53;;
67514;SDS011;60646;55.802;37.032;2023-04-03T14:11:38;10.52;;;4.15;;
67514;SDS011;60646;55.802;37.032;2023-04-03T14:14:09;8.25;;;3.97;;
67514;SDS011;60646;55.802;37.032;2023-04-03T14:16:40;6.47;;;3.72;;
67514;SDS011;60646;55.802;37.032;2023-04-03T14:19:11;8.25;;;4.25;;
67514;SDS011;60646;55.802;37.032;2023-04-03T14:21:43;8.45;;;3.65;;
67514;SDS011;60646;55.802;37.032;2023-04-03T14:24:11;7.50;;;3.85;;
67514;SDS011;60646;55.802;37.032;2023-04-03T14:26:37;7.68;;;4.90;;
67514;SDS011;60646;55.802;37.032;2023-04-03T14:29:03;7.68;;;4.75;;
67514;SDS011;60646;55.802;37.032;2023-04-03T14:31:33;13.50;;;5.63;;
67514;SDS011;60646;55.802;37.032;2023-04-03T14:33:59;10.25;;;6.28;;
67514;SDS011;60646;55.802;37.032;2023-04-03T14:36:26;10.80;;;6.55;;
67514;SDS011;60646;55.802;37.032;2023-04-03T14:38:53;11.40;;;7.40;;
67514;SDS011;60646;55.802;37.032;2023-04-03T14:41:22;9.52;;;5.65;;
67514;SDS011;60646;55.802;37.032;2023-04-03T14:43:49;10.68;;;5.95;;
67514;SDS011;60646;55.802;37.032;2023-04-03T14:46:38;10.13;;;6.07;;
67514;SDS011;60646;55.802;37.032;2023-04-03T14:49:12;9.05;;;5.35;;
67514;SDS011;60646;55.802;37.032;2023-04-03T14:51:44;9.88;;;5.72;;
67514;SDS011;60646;55.802;37.032;2023-04-03T14:54:14;8.25;;;5.57;;
67514;SDS011;60646;55.802;37.032;2023-04-03T14:56:42;11.93;;;5.88;;
67514;SDS011;60646;55.802;37.032;2023-04-03T14:59:11;9.75;;;5.57;;
67514;SDS011;60646;55.802;37.032;2023-04-03T15:01:38;9.25;;;5.43;;
67514;SDS011;60646;55.802;37.032;2023-04-03T15:04:29;12.63;;;5.95;;
67514;SDS011;60646;55.802;37.032;2023-04-03T15:07:20;9.93;;;5.80;;
67514;SDS011;60646;55.802;37.032;2023-04-03T15:09:51;11.65;;;6.63;;
67514;SDS011;60646;55.802;37.032;2023-04-03T15:12:18;12.90;;;5.77;;
67514;SDS011;60646;55.802;37.032;2023-04-03T15:14:45;14.18;;;6.25;;
67514;SDS011;60646;55.802;37.032;2023-04-03T15:17:15;17.65;;;6.28;;
67514;SDS011;60646;55.802;37.032;2023-04-03T15:19:45;10.73;;;6.07;;
67514;SDS011;60646;55.802;37.032;2023-04-03T15:22:15;11.05;;;6.00;;
67514;SDS011;60646;55.802;37.032;2023-04-03T15:24:43;16.02;;;6.50;;
67514;SDS011;60646;55.802;37.032;2023-04-03T15:27:13;10.10;;;6.78;;
67514;SDS011;60646;55.802;37.032;2023-04-03T15:29:41;18.77;;;9.43;;
67514;SDS011;60646;55.802;37.032;2023-04-03T15:32:08;18.00;;;9.98;;
67514;SDS011;60646;55.802;37.032;2023-04-03T15:34:35;20.00;;;10.50;;
67514;SDS011;60646;55.802;37.032;2023-04-03T15:37:02;13.00;;;7.55;;
67514;SDS011;60646;55.802;37.032;2023-04-03T15:39:28;13.10;;;7.03;;
67514;SDS011;60646;55.802;37.032;2023-04-03T15:41:54;10.07;;;6.22;;
67514;SDS011;60646;55.802;37.032;2023-04-03T15:44:21;10.95;;;6.20;;
67514;SDS011;60646;55.802;37.032;2023-04-03T15:46:47;12.82;;;6.65;;
67514;SDS011;60646;55.802;37.032;2023-04-03T15:49:17;12.93;;;7.50;;
67514;SDS011;60646;55.802;37.032;2023-04-03T15:51:46;13.93;;;7.63;;
67514;SDS011;60646;55.802;37.032;2023-04-03T15:54:12;15.45;;;7.68;;
67514;SDS011;60646;55.802;37.032;2023-04-03T15:56:47;16.30;;;8.73;;
67514;SDS011;60646;55.802;37.032;2023-04-03T16:00:36;17.00;;;8.75;;
67514;SDS011;60646;55.802;37.032;2023-04-03T16:07:25;10.77;;;5.72;;
67514;SDS011;60646;55.802;37.032;2023-04-03T16:09:57;8.02;;;5.10;;
67514;SDS011;60646;55.802;37.032;2023-04-03T16:12:23;10.40;;;5.82;;
67514;SDS011;60646;55.802;37.032;2023-04-03T16:14:48;8.05;;;4.63;;
67514;SDS011;60646;55.802;37.032;2023-04-03T16:17:14;8.63;;;5.60;;
67514;SDS011;60646;55.802;37.032;2023-04-03T16:19:40;7.32;;;5.07;;
67514;SDS011;60646;55.802;37.032;2023-04-03T16:22:06;8.93;;;5.30;;
67514;SDS011;60646;55.802;37.032;2023-04-03T16:24:32;7.45;;;5.18;;
67514;SDS011;60646;55.802;37.032;2023-04-03T16:26:57;9.27;;;5.25;;
67514;SDS011;60646;55.802;37.032;2023-04-03T16:29:23;8.88;;;5.50;;
67514;SDS011;60646;55.802;37.032;2023-04-03T16:31:49;9.32;;;5.35;;
67514;SDS011;60646;55.802;37.032;2023-04-03T16:34:18;12.90;;;4.95;;
67514;SDS011;60646;55.802;37.032;2023-04-03T16:37:02;12.27;;;5.38;;
67514;SDS011;60646;55.802;37.032;2023-04-03T16:39:28;10.38;;;5.15;;
67514;SDS011;60646;55.802;37.032;2023-04-03T16:41:54;9.77;;;6.20;;
67514;SDS011;60646;55.802;37.032;2023-04-03T16:44:23;7.85;;;5.28;;
67514;SDS011;60646;55.802;37.032;2023-04-03T16:46:52;9.13;;;5.57;;
67514;SDS011;60646;55.802;37.032;2023-04-03T16:49:18;8.48;;;5.43;;
67514;SDS011;60646;55.802;37.032;2023-04-03T16:51:44;13.23;;;5.75;;
67514;SDS011;60646;55.802;37.032;2023-04-03T16:54:10;9.23;;;5.68;;
67514;SDS011;60646;55.802;37.032;2023-04-03T16:56:41;8.93;;;5.20;;
67514;SDS011;60646;55.802;37.032;2023-04-03T16:59:07;10.30;;;5.20;;
67514;SDS011;60646;55.802;37.032;2023-04-03T17:01:37;9.77;;;6.00;;
67514;SDS011;60646;55.802;37.032;2023-04-03T17:04:03;9.75;;;5.60;;
67514;SDS011;60646;55.802;37.032;2023-04-03T17:06:29;10.15;;;5.57;;
67514;SDS011;60646;55.802;37.032;2023-04-03T17:08:59;9.88;;;6.00;;
67514;SDS011;60646;55.802;37.032;2023-04-03T17:11:28;9.20;;;5.65;;
67514;SDS011;60646;55.802;37.032;2023-04-03T17:13:55;10.82;;;6.90;;
67514;SDS011;60646;55.802;37.032;2023-04-03T17:16:22;10.75;;;6.57;;
67514;SDS011;60646;55.802;37.032;2023-04-03T17:18:48;10.02;;;6.20;;
67514;SDS011;60646;55.802;37.032;2023-04-03T17:21:15;8.88;;;5.55;;